createdAt,value
2018-12-16T00:02:11.754Z,93.90
2018-12-16T00:04:49.985Z,94.87
2018-12-16T00:07:23.196Z,84.10
2018-12-16T00:09:56.347Z,84.50
2018-12-16T00:12:29.359Z,86.73
2018-12-16T00:15:02.395Z,99.40
2018-12-16T00:17:35.403Z,99.20
2018-12-16T00:20:08.283Z,100.10
2018-12-16T00:22:45.589Z,110.17
2018-12-16T00:25:22.208Z,111.27
2018-12-16T00:27:55.101Z,115.33
2018-12-16T00:30:28.314Z,101.50
2018-12-16T00:33:01.392Z,113.10
2018-12-16T00:35:39.581Z,106.67
2018-12-16T00:38:12.023Z,101.87
2018-12-16T00:40:45.053Z,95.00
2018-12-16T00:43:22.227Z,104.63
2018-12-16T00:45:55.009Z,128.33
2018-12-16T00:48:28.295Z,109.73
2018-12-16T00:51:01.278Z,106.60
2018-12-16T00:53:34.370Z,104.50
2018-12-16T00:56:07.674Z,121.97
2018-12-16T00:58:41.056Z,111.57
2018-12-16T01:01:14.085Z,312.27
2018-12-16T01:03:51.212Z,102.90
2018-12-16T01:06:24.538Z,126.43
2018-12-16T01:08:57.646Z,108.00
2018-12-16T01:11:34.814Z,104.10
2018-12-16T01:14:07.871Z,103.37
2018-12-16T01:16:40.773Z,111.03
2018-12-16T01:19:13.266Z,95.03
2018-12-16T01:21:50.591Z,94.90
2018-12-16T01:24:23.787Z,99.53
2018-12-16T01:26:56.965Z,101.40
2018-12-16T01:29:34.119Z,84.97
2018-12-16T01:32:06.486Z,109.03
2018-12-16T01:34:40.031Z,96.83
2018-12-16T01:37:13.096Z,106.43
2018-12-16T01:39:50.181Z,97.10
2018-12-16T01:42:27.504Z,88.63
2018-12-16T01:45:04.857Z,88.33
2018-12-16T01:47:37.695Z,73.20
2018-12-16T01:50:10.692Z,80.47
2018-12-16T01:52:49.963Z,91.70
2018-12-16T01:55:18.491Z,88.87
2018-12-16T01:57:51.627Z,79.17
2018-12-16T02:00:29.430Z,81.57
2018-12-16T02:03:05.879Z,92.20
2018-12-16T02:05:39.023Z,85.00
2018-12-16T02:08:12.432Z,82.37
2018-12-16T02:10:49.563Z,94.53
2018-12-16T02:13:22.217Z,83.30
2018-12-16T02:15:55.299Z,83.37
2018-12-16T02:18:28.523Z,162.67
2018-12-16T02:21:05.508Z,89.93
2018-12-16T02:23:42.830Z,89.03
2018-12-16T02:26:16.144Z,89.10
2018-12-16T02:28:49.439Z,84.67
2018-12-16T02:31:22.750Z,78.20
2018-12-16T02:33:56.361Z,88.30
2018-12-16T02:36:29.371Z,92.27
2018-12-16T02:39:06.991Z,83.60
2018-12-16T02:41:39.674Z,82.80
2018-12-16T02:44:12.992Z,78.60
2018-12-16T02:46:46.110Z,80.90
2018-12-16T02:49:19.050Z,81.37
2018-12-16T02:51:56.163Z,98.33
2018-12-16T02:54:29.343Z,99.17
2018-12-16T02:57:02.496Z,93.53
2018-12-16T02:59:35.571Z,107.60
2018-12-16T03:02:12.759Z,101.33
2018-12-16T03:04:49.125Z,109.07
2018-12-16T03:07:26.425Z,106.07
2018-12-16T03:10:03.631Z,94.50
2018-12-16T03:12:40.730Z,95.27
2018-12-16T03:15:14.056Z,101.27
2018-12-16T03:17:46.905Z,102.93
2018-12-16T03:20:20.081Z,83.57
2018-12-16T03:22:52.944Z,92.07
2018-12-16T03:25:29.334Z,83.40
2018-12-16T03:28:06.903Z,84.63
2018-12-16T03:30:44.036Z,75.23
2018-12-16T03:33:17.147Z,78.20
2018-12-16T03:35:49.983Z,73.13
2018-12-16T03:38:26.534Z,75.83
2018-12-16T03:40:59.745Z,68.60
2018-12-16T03:43:32.902Z,76.00
2018-12-16T03:46:10.299Z,75.57
2018-12-16T03:48:47.257Z,85.43
2018-12-16T03:51:20.214Z,84.13
2018-12-16T03:53:53.056Z,91.33
2018-12-16T03:56:30.350Z,91.47
2018-12-16T03:59:18.042Z,88.40
2018-12-16T04:01:57.186Z,84.87
2018-12-16T04:04:30.505Z,91.47
2018-12-16T04:07:03.470Z,90.23
2018-12-16T04:09:36.800Z,95.37
2018-12-16T04:12:09.819Z,82.80
2018-12-16T04:14:42.857Z,91.70
2018-12-16T04:17:20.259Z,91.10
2018-12-16T04:19:57.453Z,80.90
2018-12-16T04:22:30.472Z,81.97
2018-12-16T04:25:03.613Z,80.00
2018-12-16T04:27:41.552Z,92.87
2018-12-16T04:30:14.643Z,84.83
2018-12-16T04:32:47.790Z,73.27
2018-12-16T04:35:25.022Z,80.13
2018-12-16T04:37:58.164Z,82.27
2018-12-16T04:40:34.622Z,66.20
2018-12-16T04:43:11.702Z,73.57
2018-12-16T04:45:48.334Z,74.83
2018-12-16T04:48:21.642Z,75.20
2018-12-16T04:50:54.870Z,76.97
2018-12-16T04:53:36.071Z,79.50
2018-12-16T04:56:10.681Z,82.43
2018-12-16T04:58:47.851Z,78.63
2018-12-16T05:01:20.843Z,74.67
2018-12-16T05:03:58.130Z,81.93
2018-12-16T05:06:31.012Z,77.27
2018-12-16T05:09:08.753Z,139.90
2018-12-16T05:11:45.174Z,429.70
2018-12-16T05:14:18.367Z,465.53
2018-12-16T05:16:54.754Z,276.40
2018-12-16T05:19:31.268Z,101.20
2018-12-16T05:22:04.607Z,117.33
2018-12-16T05:24:37.744Z,101.70
2018-12-16T05:27:10.877Z,83.50
2018-12-16T05:29:48.098Z,91.17
2018-12-16T05:32:20.935Z,201.07
2018-12-16T05:34:53.341Z,1235.00
2018-12-16T05:37:30.377Z,1355.73
2018-12-16T05:40:03.689Z,1666.40
2018-12-16T05:42:36.402Z,1120.43
2018-12-16T05:45:13.698Z,564.53
2018-12-16T05:47:50.195Z,193.50
2018-12-16T05:50:22.874Z,136.07
2018-12-16T05:52:55.879Z,103.07
2018-12-16T05:55:28.794Z,95.90
2018-12-16T05:58:05.073Z,88.00
2018-12-16T06:00:41.374Z,81.50
2018-12-16T06:03:14.608Z,49.47
2018-12-16T06:05:51.607Z,818.77
2018-12-16T06:08:28.767Z,157.10
2018-12-16T06:11:01.696Z,79.03
2018-12-16T06:13:35.063Z,87.00
2018-12-16T06:16:08.147Z,103.53
2018-12-16T06:18:40.736Z,98.40
2018-12-16T06:21:14.191Z,103.17
2018-12-16T06:23:47.219Z,97.37
2018-12-16T06:26:20.282Z,99.73
2018-12-16T06:28:53.348Z,97.70
2018-12-16T06:31:26.449Z,92.43
2018-12-16T06:33:59.783Z,90.77
2018-12-16T06:36:33.220Z,85.53
2018-12-16T06:39:10.174Z,81.33
2018-12-16T06:41:55.329Z,62.97
2018-12-16T06:44:28.489Z,75.73
2018-12-16T06:47:01.518Z,83.43
2018-12-16T06:49:34.953Z,72.27
2018-12-16T06:52:08.279Z,89.57
2018-12-16T06:54:41.711Z,58.80
2018-12-16T06:57:14.788Z,67.70
2018-12-16T06:59:51.693Z,61.87
2018-12-16T07:02:24.921Z,61.37
2018-12-16T07:04:58.274Z,58.60
2018-12-16T07:07:31.493Z,45.60
2018-12-16T07:10:04.910Z,50.63
2018-12-16T07:12:37.756Z,46.83
2018-12-16T07:15:15.030Z,42.93
2018-12-16T07:17:52.126Z,41.30
2018-12-16T07:20:29.129Z,44.30
2018-12-16T07:23:02.352Z,46.70
2018-12-16T07:25:35.866Z,47.50
2018-12-16T07:28:12.874Z,52.73
2018-12-16T07:30:45.633Z,46.67
2018-12-16T07:33:19.150Z,46.37
2018-12-16T07:35:52.391Z,47.03
2018-12-16T07:38:27.476Z,45.20
2018-12-16T07:41:04.689Z,43.13
2018-12-16T07:43:38.323Z,44.30
2018-12-16T07:46:11.491Z,44.17
2018-12-16T07:48:44.768Z,42.50
2018-12-16T07:51:21.961Z,48.30
2018-12-16T07:53:54.903Z,38.33
2018-12-16T07:56:27.750Z,36.57
2018-12-16T07:59:00.894Z,37.97
2018-12-16T08:01:34.144Z,33.47
2018-12-16T08:04:07.355Z,38.53
2018-12-16T08:06:44.264Z,40.83
2018-12-16T08:09:18.551Z,38.20
2018-12-16T08:11:51.828Z,33.50
2018-12-16T08:14:24.747Z,31.80
2018-12-16T08:17:01.699Z,30.00
2018-12-16T08:19:35.075Z,1239.83
2018-12-16T08:22:08.090Z,1999.90
2018-12-16T08:24:45.425Z,1490.60
2018-12-16T08:27:18.861Z,1343.57
2018-12-16T08:29:51.956Z,692.00
2018-12-16T08:32:25.221Z,99.67
2018-12-16T08:35:02.008Z,68.17
2018-12-16T08:37:35.386Z,86.80
2018-12-16T08:40:08.790Z,68.40
2018-12-16T08:42:41.822Z,64.47
2018-12-16T08:45:15.228Z,59.50
2018-12-16T08:47:52.264Z,70.70
2018-12-16T08:50:25.184Z,68.63
2018-12-16T08:53:02.451Z,77.87
2018-12-16T08:55:35.436Z,76.37
2018-12-16T08:58:10.098Z,76.13
2018-12-16T09:00:47.016Z,73.47
2018-12-16T09:03:19.938Z,63.10
2018-12-16T09:05:53.400Z,66.57
2018-12-16T09:08:26.455Z,53.83
2018-12-16T09:10:59.565Z,54.93
2018-12-16T09:13:32.828Z,52.10
2018-12-16T09:16:09.382Z,54.30
2018-12-16T09:18:45.751Z,49.63
2018-12-16T09:21:22.118Z,44.33
2018-12-16T09:23:58.481Z,37.63
2018-12-16T09:26:35.706Z,43.03
2018-12-16T09:29:13.366Z,47.70
2018-12-16T09:31:53.387Z,56.53
2018-12-16T09:34:26.574Z,69.73
2018-12-16T09:36:59.776Z,60.63
2018-12-16T09:39:33.015Z,48.27
2018-12-16T09:42:06.331Z,43.53
2018-12-16T09:44:43.814Z,46.43
2018-12-16T09:47:16.859Z,46.70
2018-12-16T09:49:50.294Z,46.97
2018-12-16T09:52:27.649Z,46.50
2018-12-16T09:55:00.270Z,44.93
2018-12-16T09:57:37.747Z,40.57
2018-12-16T10:00:14.866Z,28.17
2018-12-16T10:02:47.989Z,28.87
2018-12-16T10:05:24.998Z,20.07
2018-12-16T10:07:58.024Z,24.33
2018-12-16T10:10:31.397Z,33.00
2018-12-16T10:13:04.674Z,273.23
2018-12-16T10:15:41.385Z,1373.73
2018-12-16T10:18:14.756Z,120.67
2018-12-16T10:20:47.811Z,476.33
2018-12-16T10:23:25.003Z,36.03
2018-12-16T10:26:02.218Z,42.13
2018-12-16T10:28:35.490Z,50.40
2018-12-16T10:31:12.529Z,67.63
2018-12-16T10:33:45.640Z,43.63
2018-12-16T10:36:18.952Z,39.83
2018-12-16T10:38:56.158Z,43.60
2018-12-16T10:41:29.450Z,37.47
2018-12-16T10:44:02.490Z,22.90
2018-12-16T10:46:35.610Z,23.10
2018-12-16T10:49:13.370Z,26.77
2018-12-16T10:51:46.287Z,33.73
2018-12-16T10:54:23.268Z,30.37
2018-12-16T10:56:56.463Z,34.13
2018-12-16T10:59:29.587Z,31.10
2018-12-16T11:02:06.616Z,103.73
2018-12-16T11:04:39.885Z,135.17
2018-12-16T11:07:18.027Z,58.10
2018-12-16T11:09:51.299Z,46.57
2018-12-16T11:12:24.867Z,43.13
2018-12-16T11:15:02.062Z,34.03
2018-12-16T11:17:35.574Z,36.47
2018-12-16T11:20:09.028Z,36.37
2018-12-16T11:22:41.879Z,43.87
2018-12-16T11:25:16.779Z,34.37
2018-12-16T11:27:49.661Z,31.10
2018-12-16T11:30:23.023Z,29.70
2018-12-16T11:32:55.704Z,24.87
2018-12-16T11:35:28.910Z,25.57
2018-12-16T11:38:01.997Z,22.60
2018-12-16T11:40:39.374Z,21.07
2018-12-16T11:43:12.269Z,32.03
2018-12-16T11:45:45.742Z,35.80
2018-12-16T11:48:18.729Z,32.90
2018-12-16T11:50:56.017Z,44.47
2018-12-16T11:53:33.134Z,37.20
2018-12-16T11:56:05.872Z,24.00
2018-12-16T11:58:39.350Z,23.97
2018-12-16T12:01:12.730Z,21.67
2018-12-16T12:03:45.599Z,23.60
2018-12-16T12:06:19.294Z,26.47
2018-12-16T12:08:57.068Z,23.43
2018-12-16T12:11:30.277Z,21.40
2018-12-16T12:14:03.426Z,20.47
2018-12-16T12:16:36.584Z,18.83
2018-12-16T12:19:14.406Z,20.37
2018-12-16T12:21:47.986Z,16.67
2018-12-16T12:24:25.533Z,18.50
2018-12-16T12:26:59.390Z,15.43
2018-12-16T12:29:35.706Z,15.40
2018-12-16T12:32:09.132Z,15.37
2018-12-16T12:34:42.139Z,13.57
2018-12-16T12:37:14.787Z,14.37
2018-12-16T12:39:47.962Z,15.00
2018-12-16T12:42:25.126Z,13.97
2018-12-16T12:44:58.293Z,18.97
2018-12-16T12:47:34.653Z,21.90
2018-12-16T12:50:11.630Z,22.50
2018-12-16T12:52:45.078Z,20.30
2018-12-16T12:55:26.829Z,19.97
2018-12-16T12:58:00.762Z,18.13
2018-12-16T13:00:38.486Z,20.67
2018-12-16T13:03:12.773Z,17.90
2018-12-16T13:05:46.808Z,19.83
2018-12-16T13:08:25.499Z,17.60
2018-12-16T13:11:03.010Z,19.30
2018-12-16T13:13:41.582Z,16.87
2018-12-16T13:16:15.950Z,21.40
2018-12-16T13:18:50.966Z,19.43
2018-12-16T13:21:24.587Z,18.73
2018-12-16T13:23:58.587Z,19.43
2018-12-16T13:26:32.374Z,18.83
2018-12-16T13:29:07.640Z,19.73
2018-12-16T13:31:41.705Z,22.30
2018-12-16T13:34:15.680Z,22.77
2018-12-16T13:36:48.907Z,26.17
2018-12-16T13:39:22.717Z,23.07
2018-12-16T13:41:59.613Z,23.27
2018-12-16T13:44:32.501Z,23.47
2018-12-16T13:47:06.007Z,22.73
2018-12-16T13:49:39.090Z,17.97
2018-12-16T13:52:11.995Z,19.57
2018-12-16T13:54:45.723Z,17.70
2018-12-16T13:57:18.798Z,21.37
2018-12-16T13:59:52.168Z,20.97
2018-12-16T14:02:25.916Z,22.70
2018-12-16T14:04:59.450Z,23.97
2018-12-16T14:07:33.874Z,25.77
2018-12-16T14:10:07.417Z,22.13
2018-12-16T14:12:40.180Z,23.83
2018-12-16T14:15:13.295Z,25.43
2018-12-16T14:17:46.340Z,24.07
2018-12-16T14:20:19.209Z,25.20
2018-12-16T14:22:52.308Z,26.07
2018-12-16T14:25:25.741Z,24.77
2018-12-16T14:27:59.918Z,26.87
2018-12-16T14:30:32.941Z,27.07
2018-12-16T14:33:05.891Z,31.37
2018-12-16T14:35:38.838Z,30.17
2018-12-16T14:38:16.416Z,31.77
2018-12-16T14:40:54.077Z,28.40
2018-12-16T14:43:27.283Z,27.27
2018-12-16T14:46:04.359Z,33.17
2018-12-16T14:48:37.292Z,32.80
2018-12-16T14:51:10.608Z,34.17
2018-12-16T14:53:44.041Z,32.30
2018-12-16T14:56:17.239Z,30.37
2018-12-16T14:58:50.984Z,34.30
2018-12-16T15:01:28.711Z,34.70
2018-12-16T15:04:01.852Z,31.80
2018-12-16T15:06:34.755Z,38.13
2018-12-16T15:09:09.212Z,38.20
2018-12-16T15:11:46.419Z,38.20
2018-12-16T15:14:23.141Z,35.03
2018-12-16T15:16:56.119Z,44.23
2018-12-16T15:19:29.378Z,36.87
2018-12-16T15:22:02.482Z,37.97
2018-12-16T15:24:35.187Z,51.10
2018-12-16T15:27:08.266Z,42.83
2018-12-16T15:29:41.297Z,54.13
2018-12-16T15:32:14.506Z,223.17
2018-12-16T15:34:47.645Z,857.27
2018-12-16T15:37:20.880Z,56.13
2018-12-16T15:39:56.595Z,84.30
2018-12-16T15:42:29.670Z,51.20
2018-12-16T15:45:02.873Z,53.30
2018-12-16T15:47:36.259Z,66.00
2018-12-16T15:50:10.103Z,55.40
2018-12-16T15:52:47.170Z,61.10
2018-12-16T15:55:19.739Z,109.23
2018-12-16T15:57:56.986Z,80.33
2018-12-16T16:00:30.158Z,52.33
2018-12-16T16:03:03.299Z,55.90
2018-12-16T16:05:36.472Z,55.87
2018-12-16T16:08:16.391Z,54.80
2018-12-16T16:10:47.387Z,62.33
2018-12-16T16:13:20.430Z,55.27
2018-12-16T16:15:52.938Z,1007.73
2018-12-16T16:18:25.364Z,364.03
2018-12-16T16:20:58.263Z,347.50
2018-12-16T16:23:34.547Z,175.80
2018-12-16T16:26:16.159Z,94.53
2018-12-16T16:28:46.222Z,69.97
2018-12-16T16:31:23.420Z,64.97
2018-12-16T16:33:55.729Z,57.33
2018-12-16T16:36:28.064Z,58.10
2018-12-16T16:39:01.617Z,54.47
2018-12-16T16:41:35.445Z,58.27
2018-12-16T16:44:08.703Z,52.47
2018-12-16T16:46:41.566Z,54.30
2018-12-16T16:49:17.983Z,54.00
2018-12-16T16:51:51.010Z,50.53
2018-12-16T16:54:28.204Z,49.70
2018-12-16T16:57:01.384Z,48.27
2018-12-16T16:59:37.923Z,44.47
2018-12-16T17:02:10.935Z,64.07
2018-12-16T17:04:44.023Z,51.63
2018-12-16T17:07:17.003Z,50.17
2018-12-16T17:09:49.303Z,51.63
2018-12-16T17:12:25.693Z,55.57
2018-12-16T17:14:58.776Z,126.17
2018-12-16T17:17:33.092Z,74.33
2018-12-16T17:20:05.620Z,74.43
2018-12-16T17:22:38.486Z,66.53
2018-12-16T17:25:11.716Z,72.10
2018-12-16T17:27:44.947Z,66.57
2018-12-16T17:30:18.022Z,75.50
2018-12-16T17:32:51.262Z,76.07
2018-12-16T17:35:23.550Z,62.40
2018-12-16T17:37:56.016Z,67.40
2018-12-16T17:40:29.507Z,60.50
2018-12-16T17:43:02.220Z,69.13
2018-12-16T17:45:35.280Z,68.87
2018-12-16T17:52:57.442Z,92.03
2018-12-16T17:55:34.341Z,64.10
2018-12-16T17:58:07.530Z,60.07
2018-12-16T18:00:40.660Z,55.83
2018-12-16T18:03:13.899Z,60.00
2018-12-16T18:05:46.342Z,55.37
2018-12-16T18:08:19.490Z,54.03
2018-12-16T18:10:52.638Z,65.57
2018-12-16T18:13:25.944Z,61.23
2018-12-16T18:15:59.034Z,58.50
2018-12-16T18:18:31.707Z,55.87
2018-12-16T18:21:04.463Z,58.43
2018-12-16T18:23:37.906Z,55.70
2018-12-16T18:26:10.990Z,72.00
2018-12-16T18:28:43.600Z,63.47
2018-12-16T18:31:16.572Z,69.33
2018-12-16T18:33:48.970Z,64.60
2018-12-16T18:36:21.997Z,51.43
2018-12-16T18:38:55.194Z,62.13
2018-12-16T18:41:28.425Z,61.33
2018-12-16T18:44:01.298Z,58.93
2018-12-16T18:46:34.383Z,57.33
2018-12-16T18:49:07.899Z,74.27
2018-12-16T18:51:44.870Z,56.07
2018-12-16T18:54:17.534Z,65.53
2018-12-16T18:56:51.226Z,65.10
2018-12-16T18:59:24.122Z,71.03
2018-12-16T19:01:56.957Z,58.80
2018-12-16T19:04:34.033Z,49.97
2018-12-16T19:07:07.297Z,73.83
2018-12-16T19:09:44.355Z,57.10
2018-12-16T19:12:17.410Z,49.43
2018-12-16T19:14:54.322Z,54.20
2018-12-16T19:17:27.092Z,64.80
2018-12-16T19:19:59.933Z,64.17
2018-12-16T19:22:33.180Z,61.93
2018-12-16T19:25:06.679Z,57.27
2018-12-16T19:27:39.953Z,54.90
2018-12-16T19:30:13.012Z,65.80
2018-12-16T19:32:46.286Z,58.90
2018-12-16T19:35:19.532Z,72.93
2018-12-16T19:37:52.988Z,52.17
2018-12-16T19:40:29.783Z,51.33
2018-12-16T19:43:06.426Z,64.63
2018-12-16T19:45:43.702Z,63.47
2018-12-16T19:48:20.638Z,54.77
2018-12-16T19:50:54.226Z,52.80
2018-12-16T19:53:31.258Z,46.40
2018-12-16T19:56:04.655Z,63.77
2018-12-16T19:58:37.708Z,77.97
2018-12-16T20:01:14.950Z,105.27
2018-12-16T20:03:56.642Z,96.47
2018-12-16T20:06:38.999Z,68.83
2018-12-16T20:09:11.923Z,90.93
2018-12-16T20:11:48.694Z,186.70
2018-12-16T20:14:21.963Z,59.90
2018-12-16T20:16:55.652Z,69.60
2018-12-16T20:19:32.467Z,72.93
2018-12-16T20:22:05.724Z,85.23
2018-12-16T20:24:43.182Z,107.83
2018-12-16T20:27:16.360Z,77.60
2018-12-16T20:29:53.352Z,63.50
2018-12-16T20:32:26.735Z,82.73
2018-12-16T20:35:04.190Z,78.87
2018-12-16T20:37:37.879Z,92.83
2018-12-16T20:40:10.395Z,80.70
2018-12-16T20:42:43.610Z,67.60
2018-12-16T20:45:20.075Z,74.50
2018-12-16T20:47:53.440Z,80.40
2018-12-16T20:50:26.479Z,168.87
2018-12-16T20:53:03.867Z,97.13
2018-12-16T20:55:37.204Z,121.03
2018-12-16T20:58:10.287Z,305.97
2018-12-16T21:00:43.764Z,358.97
2018-12-16T21:03:16.843Z,715.33
2018-12-16T21:05:53.952Z,287.97
2018-12-16T21:08:30.619Z,141.37
2018-12-16T21:11:12.844Z,110.93
2018-12-16T21:13:51.343Z,152.83
2018-12-16T21:16:33.601Z,95.37
2018-12-16T21:19:06.879Z,220.90
2018-12-16T21:21:40.154Z,94.87
2018-12-16T21:24:13.367Z,114.40
2018-12-16T21:26:50.513Z,110.50
2018-12-16T21:29:23.507Z,125.30
2018-12-16T21:31:57.143Z,142.90
2018-12-16T21:34:30.501Z,491.60
2018-12-16T21:37:04.026Z,1660.63
2018-12-16T21:39:37.419Z,1058.50
2018-12-16T21:42:10.751Z,1284.67
2018-12-16T21:44:47.724Z,746.73
2018-12-16T21:47:20.775Z,725.90
2018-12-16T21:49:54.634Z,544.57
2018-12-16T21:52:27.885Z,714.97
2018-12-16T21:55:01.103Z,517.80
2018-12-16T21:57:38.406Z,555.87
2018-12-16T22:00:11.353Z,636.50
2018-12-16T22:02:44.604Z,425.07
2018-12-16T22:05:19.645Z,598.73
2018-12-16T22:07:53.400Z,448.27
2018-12-16T22:10:31.085Z,374.47
2018-12-16T22:13:04.386Z,321.00
2018-12-16T22:15:41.446Z,350.13
2018-12-16T22:18:14.569Z,350.43
2018-12-16T22:20:47.838Z,209.50
2018-12-16T22:23:30.422Z,169.23
2018-12-16T22:26:03.531Z,259.37
2018-12-16T22:28:36.724Z,185.47
2018-12-16T22:31:09.611Z,146.13
2018-12-16T22:33:43.114Z,95.60
2018-12-16T22:36:16.119Z,97.00
2018-12-16T22:38:53.459Z,132.13
2018-12-16T22:41:30.465Z,121.50
2018-12-16T22:44:03.834Z,102.33
2018-12-16T22:46:37.097Z,157.43
2018-12-16T22:49:10.256Z,103.47
2018-12-16T22:51:43.017Z,153.00
2018-12-16T22:54:16.294Z,121.97
2018-12-16T22:56:49.605Z,131.80
2018-12-16T22:59:22.936Z,119.20
2018-12-16T23:02:00.182Z,100.33
2018-12-16T23:04:33.125Z,106.30
2018-12-16T23:07:10.713Z,128.23
2018-12-16T23:09:44.381Z,125.23
2018-12-16T23:12:17.781Z,106.00
2018-12-16T23:14:51.105Z,723.13
2018-12-16T23:17:24.375Z,120.47
2018-12-16T23:20:06.519Z,113.50
2018-12-16T23:22:39.583Z,95.97
2018-12-16T23:25:17.000Z,100.73
2018-12-16T23:27:54.520Z,139.47
2018-12-16T23:30:31.591Z,147.40
2018-12-16T23:33:04.907Z,127.00
2018-12-16T23:35:42.021Z,139.67
2018-12-16T23:38:15.363Z,96.13
2018-12-16T23:40:48.727Z,480.23
2018-12-16T23:43:25.813Z,145.63
2018-12-16T23:45:59.566Z,92.47
2018-12-16T23:48:32.990Z,114.53
2018-12-16T23:51:06.575Z,258.53
2018-12-16T23:53:39.598Z,234.37
2018-12-16T23:56:13.008Z,143.93
2018-12-16T23:58:50.696Z,238.87
